createdAt,value
2017-09-27T00:00:42.758Z,0
2017-09-27T00:01:53.107Z,0
2017-09-27T00:03:03.133Z,0
2017-09-27T00:04:13.539Z,0
2017-09-27T00:05:23.587Z,0
2017-09-27T00:06:33.645Z,0
2017-09-27T00:07:43.984Z,0
2017-09-27T00:08:54.375Z,0
2017-09-27T00:10:04.130Z,0
2017-09-27T00:11:14.497Z,0
2017-09-27T00:12:24.521Z,0
2017-09-27T00:13:34.874Z,0
2017-09-27T00:14:45.222Z,0
2017-09-27T00:15:55.562Z,0
2017-09-27T00:17:05.925Z,0
2017-09-27T00:18:16.277Z,0
2017-09-27T00:19:26.641Z,0
2017-09-27T00:20:36.992Z,0
2017-09-27T00:21:47.031Z,0
2017-09-27T00:22:57.393Z,0
2017-09-27T00:24:07.416Z,0
2017-09-27T00:25:17.126Z,0
2017-09-27T00:26:27.473Z,0
2017-09-27T00:27:37.819Z,0
2017-09-27T00:28:48.154Z,0
2017-09-27T00:29:58.168Z,0
2017-09-27T00:31:08.195Z,0
2017-09-27T00:32:18.538Z,0
2017-09-27T00:33:28.898Z,0
2017-09-27T00:34:39.254Z,0
2017-09-27T00:35:48.982Z,0
2017-09-27T00:36:59.322Z,0
2017-09-27T00:38:09.665Z,0
2017-09-27T00:39:19.386Z,0
2017-09-27T00:40:29.724Z,0
2017-09-27T00:41:40.083Z,0
2017-09-27T00:42:50.419Z,0
2017-09-27T00:44:00.766Z,0
2017-09-27T00:45:11.101Z,0
2017-09-27T00:46:21.149Z,0
2017-09-27T00:47:31.479Z,0
2017-09-27T00:48:41.195Z,0
2017-09-27T00:49:51.537Z,0
2017-09-27T00:51:02.391Z,0
2017-09-27T00:52:12.739Z,0
2017-09-27T00:53:22.758Z,0
2017-09-27T00:54:33.085Z,0
2017-09-27T00:55:43.420Z,0
2017-09-27T00:56:53.810Z,0
2017-09-27T00:58:04.150Z,0
2017-09-27T00:59:14.182Z,0
2017-09-27T01:00:24.516Z,0
2017-09-27T01:01:34.861Z,0
2017-09-27T01:02:45.202Z,0
2017-09-27T01:03:55.234Z,0
2017-09-27T01:05:05.251Z,0
2017-09-27T01:06:15.607Z,0
2017-09-27T01:07:26.287Z,0
2017-09-27T01:08:36.677Z,0
2017-09-27T01:09:47.013Z,0
2017-09-27T01:10:57.377Z,0
2017-09-27T01:12:07.716Z,0
2017-09-27T01:13:17.745Z,0
2017-09-27T01:14:28.132Z,0
2017-09-27T01:15:38.475Z,0
2017-09-27T01:16:48.513Z,0
2017-09-27T01:17:58.866Z,0
2017-09-27T01:19:08.893Z,0
2017-09-27T01:20:19.293Z,0
2017-09-27T01:21:29.640Z,0
2017-09-27T01:22:39.662Z,0
2017-09-27T01:23:50.023Z,0
2017-09-27T01:25:00.360Z,0
2017-09-27T01:26:10.703Z,0
2017-09-27T01:27:21.043Z,0
2017-09-27T01:28:31.370Z,0
2017-09-27T01:29:41.715Z,0
2017-09-27T01:30:51.741Z,0
2017-09-27T01:32:02.086Z,0
2017-09-27T01:33:12.440Z,0
2017-09-27T01:34:22.775Z,0
2017-09-27T01:35:33.113Z,0
2017-09-27T01:36:43.458Z,0
2017-09-27T01:37:53.549Z,0
2017-09-27T01:39:03.891Z,0
2017-09-27T01:40:14.225Z,0
2017-09-27T01:41:24.235Z,0
2017-09-27T01:42:34.264Z,0
2017-09-27T01:43:44.588Z,0
2017-09-27T01:44:54.607Z,0
2017-09-27T01:46:04.959Z,0
2017-09-27T01:47:15.290Z,0
2017-09-27T01:48:25.657Z,0
2017-09-27T01:49:35.680Z,0
2017-09-27T01:50:46.019Z,0
2017-09-27T01:51:56.366Z,0
2017-09-27T01:53:06.388Z,0
2017-09-27T01:54:16.741Z,0
2017-09-27T01:55:27.102Z,0
2017-09-27T01:56:37.439Z,0
2017-09-27T01:57:47.462Z,0
2017-09-27T01:58:57.483Z,0
2017-09-27T02:00:07.841Z,0
2017-09-27T02:01:17.912Z,0
2017-09-27T02:02:27.942Z,0
2017-09-27T02:03:37.957Z,0
2017-09-27T02:04:48.291Z,0
2017-09-27T02:05:58.314Z,0
2017-09-27T02:07:08.671Z,0
2017-09-27T02:08:19.022Z,0
2017-09-27T02:09:29.362Z,0
2017-09-27T02:10:39.716Z,0
2017-09-27T02:11:50.056Z,0
2017-09-27T02:13:00.132Z,0
2017-09-27T02:14:10.473Z,0
2017-09-27T02:15:20.823Z,0
2017-09-27T02:16:31.166Z,0
2017-09-27T02:17:41.191Z,0
2017-09-27T02:18:51.531Z,0
2017-09-27T02:20:01.541Z,0
2017-09-27T02:21:12.062Z,0
2017-09-27T02:22:22.396Z,0
2017-09-27T02:23:32.416Z,0
2017-09-27T02:24:42.435Z,0
2017-09-27T02:25:52.787Z,0
2017-09-27T02:27:03.116Z,0
2017-09-27T02:28:13.143Z,0
2017-09-27T02:29:23.157Z,0
2017-09-27T02:30:32.863Z,0
2017-09-27T02:31:42.572Z,0
2017-09-27T02:32:52.916Z,0
2017-09-27T02:34:03.266Z,0
2017-09-27T02:35:13.288Z,0
2017-09-27T02:36:23.673Z,0
2017-09-27T02:37:34.028Z,0
2017-09-27T02:38:44.382Z,0
2017-09-27T02:39:54.736Z,0
2017-09-27T02:41:05.135Z,0
2017-09-27T02:42:15.223Z,0
2017-09-27T02:43:25.256Z,0
2017-09-27T02:44:35.595Z,0
2017-09-27T02:45:45.621Z,0
2017-09-27T02:46:55.668Z,0
2017-09-27T02:48:06.012Z,0
2017-09-27T02:49:16.345Z,0
2017-09-27T02:50:26.699Z,0
2017-09-27T02:51:36.725Z,0
2017-09-27T02:52:47.060Z,0
2017-09-27T02:53:57.419Z,0
2017-09-27T02:55:06.803Z,0
2017-09-27T02:56:17.153Z,0
2017-09-27T02:57:27.159Z,0
2017-09-27T02:58:37.497Z,0
2017-09-27T02:59:47.888Z,0
2017-09-27T03:00:58.230Z,0
2017-09-27T03:02:08.554Z,0
2017-09-27T03:33:29.310Z,0
2017-09-27T03:34:39.317Z,0
2017-09-27T03:35:49.646Z,0
2017-09-27T03:36:59.990Z,0
2017-09-27T03:38:10.010Z,0
2017-09-27T03:39:20.038Z,0
2017-09-27T03:40:30.369Z,0
2017-09-27T03:41:40.713Z,0
2017-09-27T03:42:50.733Z,0
2017-09-27T03:44:01.090Z,0
2017-09-27T03:45:11.436Z,0
2017-09-27T03:46:21.459Z,0
2017-09-27T03:47:31.781Z,0
2017-09-27T03:48:42.156Z,0
2017-09-27T03:49:52.175Z,0
2017-09-27T03:51:02.564Z,0
2017-09-27T03:52:12.912Z,0
2017-09-27T03:53:22.638Z,0
2017-09-27T03:54:32.972Z,0
2017-09-27T03:55:44.416Z,0
2017-09-27T03:56:54.500Z,0
2017-09-27T03:58:04.842Z,0
2017-09-27T03:59:14.858Z,0
2017-09-27T04:00:25.193Z,0
2017-09-27T04:01:35.526Z,0
2017-09-27T04:02:45.553Z,0
2017-09-27T04:03:55.883Z,0
2017-09-27T04:05:06.234Z,0
2017-09-27T04:06:16.598Z,0
2017-09-27T04:07:26.604Z,0
2017-09-27T04:08:37.026Z,0
2017-09-27T04:09:47.369Z,0
2017-09-27T04:10:57.395Z,0
2017-09-27T04:12:07.746Z,0
2017-09-27T04:13:17.778Z,0
2017-09-27T04:14:27.796Z,0
2017-09-27T04:15:37.831Z,0
2017-09-27T04:16:48.178Z,0
2017-09-27T04:17:58.525Z,0
2017-09-27T04:19:08.868Z,0
2017-09-27T04:20:19.200Z,0
2017-09-27T04:21:29.547Z,0
2017-09-27T04:22:39.878Z,4
2017-09-27T04:23:49.599Z,4
2017-09-27T04:24:59.946Z,0
2017-09-27T04:26:10.328Z,4
2017-09-27T04:27:20.685Z,4
2017-09-27T04:28:31.027Z,4
2017-09-27T04:29:41.079Z,8
2017-09-27T04:30:51.425Z,8
2017-09-27T04:32:01.763Z,12
2017-09-27T04:33:12.112Z,8
2017-09-27T04:34:21.826Z,16
2017-09-27T04:35:31.852Z,16
2017-09-27T04:36:42.201Z,20
2017-09-27T04:37:52.283Z,24
2017-09-27T04:39:02.636Z,28
2017-09-27T04:40:12.975Z,36
2017-09-27T04:41:22.997Z,44
2017-09-27T04:42:33.337Z,48
2017-09-27T04:43:43.670Z,60
2017-09-27T04:44:54.008Z,64
2017-09-27T04:46:04.025Z,76
2017-09-27T04:47:14.374Z,80
2017-09-27T04:48:24.716Z,92
2017-09-27T04:49:35.109Z,100
2017-09-27T04:50:44.813Z,112
2017-09-27T04:51:54.841Z,124
2017-09-27T04:53:05.177Z,136
2017-09-27T04:54:15.510Z,148
2017-09-27T04:55:25.907Z,164
2017-09-27T04:56:35.953Z,180
2017-09-27T04:57:45.993Z,188
2017-09-27T04:58:55.998Z,208
2017-09-27T05:00:06.354Z,224
2017-09-27T05:01:16.410Z,240
2017-09-27T05:02:26.759Z,256
2017-09-27T05:03:36.769Z,272
2017-09-27T05:04:47.110Z,288
2017-09-27T05:05:57.459Z,308
2017-09-27T05:07:07.805Z,324
2017-09-27T05:08:18.140Z,344
2017-09-27T05:09:28.473Z,364
2017-09-27T05:10:38.820Z,380
2017-09-27T05:11:49.167Z,400
2017-09-27T05:12:59.185Z,416
2017-09-27T05:14:09.209Z,436
2017-09-27T05:15:19.252Z,460
2017-09-27T05:16:29.603Z,480
2017-09-27T05:17:39.650Z,500
2017-09-27T05:18:49.685Z,524
2017-09-27T05:20:00.029Z,544
2017-09-27T05:21:10.058Z,564
2017-09-27T05:22:20.393Z,588
2017-09-27T05:23:30.795Z,616
2017-09-27T05:24:40.856Z,640
2017-09-27T05:25:51.218Z,664
2017-09-27T05:27:01.595Z,696
2017-09-27T05:28:11.622Z,720
2017-09-27T05:29:21.987Z,744
2017-09-27T05:30:31.685Z,776
2017-09-27T05:31:42.026Z,804
2017-09-27T05:32:52.368Z,836
2017-09-27T05:34:02.724Z,868
2017-09-27T05:35:13.048Z,896
2017-09-27T05:36:23.405Z,932
2017-09-27T05:37:33.440Z,960
2017-09-27T05:38:43.463Z,992
2017-09-27T05:39:53.801Z,1024
2017-09-27T05:41:04.143Z,1052
2017-09-27T05:42:14.547Z,1076
2017-09-27T05:43:24.575Z,1096
2017-09-27T05:44:34.931Z,1108
2017-09-27T05:45:44.638Z,1124
2017-09-27T05:46:54.974Z,1136
2017-09-27T05:48:05.361Z,1152
2017-09-27T05:49:15.695Z,1172
2017-09-27T05:50:26.032Z,1196
2017-09-27T05:51:36.397Z,1228
2017-09-27T05:52:46.424Z,1256
2017-09-27T05:53:56.756Z,1284
2017-09-27T05:55:07.110Z,1316
2017-09-27T05:56:17.462Z,1352
2017-09-27T05:57:27.848Z,1392
2017-09-27T05:58:38.190Z,1452
2017-09-27T05:59:48.598Z,1524
2017-09-27T06:00:58.959Z,1592
2017-09-27T06:02:08.991Z,1652
2017-09-27T06:03:19.330Z,1700
2017-09-27T06:04:29.672Z,1748
2017-09-27T06:05:40.170Z,1792
2017-09-27T06:06:50.191Z,1828
2017-09-27T06:08:00.541Z,1880
2017-09-27T06:09:10.882Z,1924
2017-09-27T06:10:21.235Z,1964
2017-09-27T06:11:31.318Z,2000
2017-09-27T06:12:41.344Z,2012
2017-09-27T06:13:51.361Z,2028
2017-09-27T06:15:01.447Z,2036
2017-09-27T06:16:11.778Z,2032
2017-09-27T06:17:22.125Z,2020
2017-09-27T06:18:32.483Z,2032
2017-09-27T06:19:42.515Z,1996
2017-09-27T06:20:52.555Z,1968
2017-09-27T06:22:02.889Z,1948
2017-09-27T06:23:12.645Z,1948
2017-09-27T06:24:22.991Z,1988
2017-09-27T06:25:33.333Z,1996
2017-09-27T06:26:43.671Z,2012
2017-09-27T06:27:54.021Z,1996
2017-09-27T06:29:04.050Z,2004
2017-09-27T06:30:14.455Z,2016
2017-09-27T06:31:24.788Z,2072
2017-09-27T06:32:34.836Z,2128
2017-09-27T06:33:45.185Z,2216
2017-09-27T06:34:55.520Z,2296
2017-09-27T06:36:05.853Z,2372
2017-09-27T06:37:15.882Z,2456
2017-09-27T06:38:26.344Z,2512
2017-09-27T06:39:36.400Z,2556
2017-09-27T06:40:46.892Z,2592
2017-09-27T06:41:57.223Z,2636
2017-09-27T06:43:07.571Z,2796
2017-09-27T06:44:17.606Z,2884
2017-09-27T06:45:27.645Z,2972
2017-09-27T06:46:37.996Z,3024
2017-09-27T06:47:48.346Z,3064
2017-09-27T06:48:58.692Z,3136
2017-09-27T06:50:08.730Z,3156
2017-09-27T06:51:19.088Z,3208
2017-09-27T06:52:29.487Z,3188
2017-09-27T06:53:39.525Z,3180
2017-09-27T06:54:49.861Z,3184
2017-09-27T06:55:59.881Z,3132
2017-09-27T06:57:10.224Z,3076
2017-09-27T06:58:20.569Z,3164
2017-09-27T06:59:30.923Z,3184
2017-09-27T07:00:40.952Z,3240
2017-09-27T07:01:51.291Z,3280
2017-09-27T07:03:01.629Z,3428
2017-09-27T07:04:12.045Z,3448
2017-09-27T07:05:22.378Z,3420
2017-09-27T07:06:32.402Z,3484
2017-09-27T07:07:42.732Z,3600
2017-09-27T07:08:53.103Z,3700
2017-09-27T07:10:03.190Z,3768
2017-09-27T07:11:13.523Z,3844
2017-09-27T07:12:23.870Z,3892
2017-09-27T07:13:34.230Z,3936
2017-09-27T07:14:44.605Z,3996
2017-09-27T07:15:54.679Z,4040
2017-09-27T07:17:04.716Z,4132
2017-09-27T07:18:15.063Z,4232
2017-09-27T07:19:25.413Z,4260
2017-09-27T07:20:35.115Z,4324
2017-09-27T07:21:45.500Z,4404
2017-09-27T07:22:55.202Z,4452
2017-09-27T07:24:05.231Z,4512
2017-09-27T07:25:15.258Z,4568
2017-09-27T07:26:25.297Z,4628
2017-09-27T07:27:35.081Z,4668
2017-09-27T07:28:45.431Z,4732
2017-09-27T07:29:55.462Z,4784
2017-09-27T07:31:05.821Z,4760
2017-09-27T07:32:16.174Z,4740
2017-09-27T07:33:26.520Z,4844
2017-09-27T07:34:36.873Z,4876
2017-09-27T07:35:47.248Z,4924
2017-09-27T07:36:56.966Z,4956
2017-09-27T07:38:07.012Z,4924
2017-09-27T07:39:17.054Z,4896
2017-09-27T07:40:27.086Z,4876
2017-09-27T07:41:37.445Z,4840
2017-09-27T07:42:47.476Z,4808
2017-09-27T07:43:58.447Z,4736
2017-09-27T07:45:08.548Z,4824
2017-09-27T07:46:18.285Z,4952
2017-09-27T07:47:28.323Z,5012
2017-09-27T07:48:38.368Z,4936
2017-09-27T07:49:48.735Z,4948
2017-09-27T07:50:59.125Z,4924
2017-09-27T07:52:09.484Z,4988
2017-09-27T07:53:19.841Z,5004
2017-09-27T07:54:30.198Z,5068
2017-09-27T07:55:40.566Z,5056
2017-09-27T07:56:50.649Z,5016
2017-09-27T07:58:00.745Z,5028
2017-09-27T07:59:11.102Z,5052
2017-09-27T08:00:21.177Z,5088
2017-09-27T08:01:31.221Z,5200
2017-09-27T08:02:41.618Z,5252
2017-09-27T08:03:51.648Z,5292
2017-09-27T08:05:01.985Z,5328
2017-09-27T08:06:12.012Z,5360
2017-09-27T08:07:22.039Z,5216
2017-09-27T08:08:32.118Z,5288
2017-09-27T08:09:42.466Z,5416
2017-09-27T08:10:52.802Z,5424
2017-09-27T08:12:03.170Z,5452
2017-09-27T08:13:13.201Z,5440
2017-09-27T08:14:23.545Z,5432
2017-09-27T08:15:33.908Z,5468
2017-09-27T08:16:44.260Z,5512
2017-09-27T08:17:54.612Z,5556
2017-09-27T08:19:04.975Z,5604
2017-09-27T08:20:15.078Z,5608
2017-09-27T08:21:25.128Z,5592
2017-09-27T08:22:35.168Z,5620
2017-09-27T08:23:45.206Z,5632
2017-09-27T08:24:55.542Z,5676
2017-09-27T08:26:05.953Z,5692
2017-09-27T08:27:16.005Z,5704
2017-09-27T08:28:26.354Z,5740
2017-09-27T08:29:36.723Z,5740
2017-09-27T08:30:47.079Z,5760
2017-09-27T08:31:57.436Z,5772
2017-09-27T08:33:07.803Z,5708
2017-09-27T08:34:18.211Z,5732
2017-09-27T08:35:28.569Z,5660
2017-09-27T08:36:38.923Z,5412
2017-09-27T08:37:49.330Z,5476
2017-09-27T08:38:59.677Z,5592
2017-09-27T08:40:10.041Z,5640
2017-09-27T08:41:20.092Z,5744
2017-09-27T08:42:30.116Z,5780
2017-09-27T08:43:40.206Z,5820
2017-09-27T08:44:50.563Z,5720
2017-09-27T08:46:00.596Z,5596
2017-09-27T08:47:10.946Z,5784
2017-09-27T08:48:21.296Z,5804
2017-09-27T08:49:31.690Z,5796
2017-09-27T08:50:45.172Z,5840
2017-09-27T08:52:00.352Z,5832
2017-09-27T08:53:14.834Z,5760
2017-09-27T08:54:28.444Z,5756
2017-09-27T08:55:43.087Z,5960
2017-09-27T08:56:57.187Z,6016
2017-09-27T08:58:10.733Z,5696
2017-09-27T08:59:25.090Z,5628
2017-09-27T09:00:39.238Z,4996
2017-09-27T09:01:53.825Z,4524
2017-09-27T09:03:07.556Z,4756
2017-09-27T09:04:18.990Z,5192
2017-09-27T09:05:29.401Z,5148
2017-09-27T09:06:39.808Z,5044
2017-09-27T09:07:50.182Z,5312
2017-09-27T09:09:00.787Z,5732
2017-09-27T09:10:11.176Z,6024
2017-09-27T09:11:21.602Z,6580
2017-09-27T09:12:31.966Z,6744
2017-09-27T09:13:42.025Z,6904
2017-09-27T09:14:52.166Z,6768
2017-09-27T09:16:02.657Z,6668
2017-09-27T09:17:13.140Z,6288
2017-09-27T09:18:23.560Z,5636
2017-09-27T09:19:33.650Z,5844
2017-09-27T09:20:43.678Z,6116
2017-09-27T09:21:54.040Z,5548
2017-09-27T09:23:03.830Z,5740
2017-09-27T09:24:14.247Z,5156
2017-09-27T09:25:24.716Z,4700
2017-09-27T09:26:35.118Z,5456
2017-09-27T09:27:45.509Z,5736
2017-09-27T09:28:55.945Z,4824
2017-09-27T09:30:06.342Z,5416
2017-09-27T09:31:16.692Z,5588
2017-09-27T09:32:27.350Z,5100
2017-09-27T09:33:37.697Z,5664
2017-09-27T09:34:47.759Z,5276
2017-09-27T09:35:58.113Z,5008
2017-09-27T09:37:08.145Z,5032
2017-09-27T09:38:18.493Z,4976
2017-09-27T09:39:28.841Z,4956
2017-09-27T09:40:39.281Z,5148
2017-09-27T09:41:49.039Z,5072
2017-09-27T09:42:59.064Z,5100
2017-09-27T09:44:09.409Z,5296
2017-09-27T09:45:19.760Z,5568
2017-09-27T09:46:30.163Z,5508
2017-09-27T09:47:40.178Z,5552
2017-09-27T09:48:50.541Z,5636
2017-09-27T09:50:00.925Z,5716
2017-09-27T09:51:11.306Z,6532
2017-09-27T09:52:21.700Z,6496
2017-09-27T09:53:32.047Z,6620
2017-09-27T09:54:42.401Z,6636
2017-09-27T09:55:52.757Z,5932
2017-09-27T09:57:03.107Z,6096
2017-09-27T09:58:13.528Z,6428
2017-09-27T09:59:23.881Z,6784
2017-09-27T10:00:34.244Z,6744
2017-09-27T10:01:44.597Z,7112
2017-09-27T10:02:54.971Z,7160
2017-09-27T10:04:05.395Z,7192
2017-09-27T10:05:15.745Z,7296
2017-09-27T10:06:26.101Z,7276
2017-09-27T10:07:36.145Z,7412
2017-09-27T10:08:46.504Z,7636
2017-09-27T10:09:56.881Z,7748
2017-09-27T10:11:07.225Z,7696
2017-09-27T10:12:17.276Z,7672
2017-09-27T10:13:27.325Z,7264
2017-09-27T10:14:37.673Z,6972
2017-09-27T10:15:47.772Z,6992
2017-09-27T10:16:57.808Z,7184
2017-09-27T10:18:07.878Z,7008
2017-09-27T10:19:18.255Z,7440
2017-09-27T10:20:28.292Z,7472
2017-09-27T10:21:38.699Z,7356
2017-09-27T10:22:48.734Z,7352
2017-09-27T10:23:59.146Z,7448
2017-09-27T10:25:09.491Z,7432
2017-09-27T10:26:19.975Z,7516
2017-09-27T10:27:30.370Z,7508
2017-09-27T10:28:40.729Z,7368
2017-09-27T10:29:51.088Z,7364
2017-09-27T10:31:01.463Z,7332
2017-09-27T10:32:11.819Z,7192
2017-09-27T10:33:22.248Z,7108
2017-09-27T10:34:32.285Z,7116
2017-09-27T10:35:42.647Z,7100
2017-09-27T10:36:52.994Z,7084
2017-09-27T10:38:03.048Z,7000
2017-09-27T10:39:13.166Z,6696
2017-09-27T10:40:23.537Z,6144
2017-09-27T10:41:33.564Z,6264
2017-09-27T10:42:43.598Z,6256
2017-09-27T10:43:53.331Z,6240
2017-09-27T10:45:03.706Z,6000
2017-09-27T10:46:13.737Z,6184
2017-09-27T10:47:23.759Z,6244
2017-09-27T10:48:34.097Z,6140
2017-09-27T10:49:44.453Z,6448
2017-09-27T10:50:54.540Z,6392
2017-09-27T10:52:05.826Z,6612
2017-09-27T10:53:15.878Z,6752
2017-09-27T10:54:26.231Z,6848
2017-09-27T10:55:36.261Z,6848
2017-09-27T10:56:46.620Z,6508
2017-09-27T10:57:56.964Z,6932
2017-09-27T10:59:07.010Z,6764
2017-09-27T11:00:17.399Z,6036
2017-09-27T11:01:27.756Z,6756
2017-09-27T11:02:38.319Z,6812
2017-09-27T11:03:48.401Z,6916
2017-09-27T11:04:58.765Z,7000
2017-09-27T11:06:09.126Z,6720
2017-09-27T11:07:19.527Z,6368
2017-09-27T11:08:29.945Z,5436
2017-09-27T11:09:40.019Z,7320
2017-09-27T11:10:50.404Z,7112
2017-09-27T11:12:00.492Z,6944
2017-09-27T11:13:10.878Z,5232
2017-09-27T11:14:21.249Z,5920
2017-09-27T11:15:31.607Z,5068
2017-09-27T11:16:41.960Z,7168
2017-09-27T11:17:52.316Z,5100
2017-09-27T11:19:02.050Z,4756
2017-09-27T11:20:12.451Z,4720
2017-09-27T11:21:22.816Z,4864
2017-09-27T11:22:32.855Z,4760
2017-09-27T11:23:43.209Z,5028
2017-09-27T11:24:53.251Z,7844
2017-09-27T11:26:03.324Z,7856
2017-09-27T11:27:13.375Z,7812
2017-09-27T11:28:23.420Z,7632
2017-09-27T11:29:33.782Z,7536
2017-09-27T11:30:43.510Z,5320
2017-09-27T11:31:53.600Z,6488
2017-09-27T11:33:03.634Z,7220
2017-09-27T11:34:13.677Z,7672
2017-09-27T11:35:24.039Z,7920
2017-09-27T11:36:34.436Z,7752
2017-09-27T11:37:44.855Z,7540
2017-09-27T11:38:55.231Z,7700
2017-09-27T11:40:05.625Z,7724
2017-09-27T11:41:15.989Z,7724
2017-09-27T11:42:26.348Z,7692
2017-09-27T11:43:36.759Z,7548
2017-09-27T11:44:46.462Z,6460
2017-09-27T11:45:57.042Z,6168
2017-09-27T11:47:07.399Z,5408
2017-09-27T11:48:17.140Z,5812
2017-09-27T11:49:27.497Z,5536
2017-09-27T11:50:37.531Z,5528
2017-09-27T11:51:47.878Z,5416
2017-09-27T11:52:57.918Z,5460
2017-09-27T11:54:08.277Z,5424
2017-09-27T11:55:18.687Z,5832
2017-09-27T11:56:29.053Z,5660
2017-09-27T11:57:39.396Z,5704
2017-09-27T11:58:49.737Z,5528
2017-09-27T11:59:59.773Z,5468
2017-09-27T12:01:10.190Z,5644
2017-09-27T12:02:20.541Z,6196
2017-09-27T12:03:30.885Z,6620
2017-09-27T12:04:40.611Z,8460
2017-09-27T12:05:50.032Z,6828
2017-09-27T12:07:00.380Z,5612
2017-09-27T12:08:10.736Z,5588
2017-09-27T12:09:21.118Z,6676
2017-09-27T12:10:31.471Z,6008
2017-09-27T12:11:41.825Z,6724
2017-09-27T12:12:51.861Z,7140
2017-09-27T12:14:02.229Z,7340
2017-09-27T12:15:11.952Z,7196
2017-09-27T12:16:21.663Z,6852
2017-09-27T12:17:31.366Z,7000
2017-09-27T12:18:41.771Z,6960
2017-09-27T12:19:52.124Z,7096
2017-09-27T12:21:02.504Z,6908
2017-09-27T12:22:12.865Z,6600
2017-09-27T12:23:23.229Z,6092
2017-09-27T12:24:33.263Z,6740
2017-09-27T12:25:43.307Z,5112
2017-09-27T12:26:53.669Z,5256
2017-09-27T12:28:03.383Z,5660
2017-09-27T12:29:13.739Z,4968
2017-09-27T12:30:23.835Z,4724
2017-09-27T12:31:33.866Z,4680
2017-09-27T12:32:43.603Z,4664
2017-09-27T12:33:53.333Z,4604
2017-09-27T12:35:03.366Z,4672
2017-09-27T12:36:13.407Z,4768
2017-09-27T12:37:23.451Z,4368
2017-09-27T12:38:33.483Z,4400
2017-09-27T12:39:43.842Z,4664
2017-09-27T12:40:54.193Z,5184
2017-09-27T12:42:03.958Z,4540
2017-09-27T12:43:14.310Z,4536
2017-09-27T12:44:24.669Z,4540
2017-09-27T12:45:35.017Z,4544
2017-09-27T12:46:45.374Z,4536
2017-09-27T12:47:55.462Z,4520
2017-09-27T12:49:05.514Z,4512
2017-09-27T12:50:15.563Z,4528
2017-09-27T12:51:25.910Z,4544
2017-09-27T12:52:36.274Z,4552
2017-09-27T12:53:46.293Z,4560
2017-09-27T12:54:56.678Z,4528
2017-09-27T12:56:06.708Z,4504
2017-09-27T12:57:17.075Z,4492
2017-09-27T12:58:27.438Z,4472
2017-09-27T12:59:38.900Z,4448
2017-09-27T13:00:50.414Z,4420
2017-09-27T13:02:00.467Z,4400
2017-09-27T13:03:10.835Z,4392
2017-09-27T13:04:20.883Z,4380
2017-09-27T13:05:30.918Z,4384
2017-09-27T13:06:41.304Z,4392
2017-09-27T13:07:51.342Z,4400
2017-09-27T13:09:01.688Z,4392
2017-09-27T13:10:12.045Z,4412
2017-09-27T13:11:22.125Z,4440
2017-09-27T13:12:32.490Z,4572
2017-09-27T13:13:42.842Z,4468
2017-09-27T13:14:53.234Z,4456
2017-09-27T13:16:03.280Z,4480
2017-09-27T13:17:13.378Z,4448
2017-09-27T13:18:23.725Z,4440
2017-09-27T13:19:34.082Z,4436
2017-09-27T13:20:44.126Z,4412
2017-09-27T13:21:53.858Z,4320
2017-09-27T13:23:04.224Z,4252
2017-09-27T13:24:14.570Z,4192
2017-09-27T13:25:24.940Z,4136
2017-09-27T13:26:34.983Z,4072
2017-09-27T13:27:45.039Z,4008
2017-09-27T13:28:55.427Z,3948
2017-09-27T13:30:05.841Z,3888
2017-09-27T13:31:15.886Z,3824
2017-09-27T13:32:26.237Z,3776
2017-09-27T13:33:36.599Z,3728
2017-09-27T13:34:46.946Z,3680
2017-09-27T13:35:57.288Z,3632
2017-09-27T13:37:07.636Z,3596
2017-09-27T13:38:17.996Z,3560
2017-09-27T13:39:28.343Z,3524
2017-09-27T13:40:38.694Z,3488
2017-09-27T13:41:48.787Z,3456
2017-09-27T13:42:58.830Z,3436
2017-09-27T13:44:09.749Z,3420
2017-09-27T13:45:19.790Z,3416
2017-09-27T13:46:30.159Z,3400
2017-09-27T13:47:40.190Z,3388
2017-09-27T13:48:50.250Z,3360
2017-09-27T13:50:00.584Z,3328
2017-09-27T13:51:10.941Z,3284
2017-09-27T13:52:20.663Z,3232
2017-09-27T13:53:30.756Z,3168
2017-09-27T13:54:41.126Z,3096
2017-09-27T13:55:51.488Z,3020
2017-09-27T13:57:01.535Z,2960
2017-09-27T13:58:11.937Z,2904
2017-09-27T13:59:22.354Z,2832
2017-09-27T14:00:32.701Z,2772
2017-09-27T14:01:42.758Z,2716
2017-09-27T14:02:52.789Z,2660
2017-09-27T14:04:03.157Z,2616
2017-09-27T14:05:13.262Z,2572
2017-09-27T14:06:23.623Z,2536
2017-09-27T14:07:34.014Z,2512
2017-09-27T14:08:44.399Z,2488
2017-09-27T14:09:54.754Z,2460
2017-09-27T14:11:05.181Z,2424
2017-09-27T14:12:15.547Z,2380
2017-09-27T14:13:25.584Z,2332
2017-09-27T14:14:35.946Z,2284
2017-09-27T14:15:46.004Z,2244
2017-09-27T14:16:56.352Z,2200
2017-09-27T14:18:06.694Z,2172
2017-09-27T14:19:17.060Z,2152
2017-09-27T14:20:27.110Z,2148
2017-09-27T14:21:37.466Z,2152
2017-09-27T14:22:47.912Z,2168
2017-09-27T14:23:57.976Z,2184
2017-09-27T14:25:08.346Z,2204
2017-09-27T14:26:18.409Z,2224
2017-09-27T14:27:28.780Z,2244
2017-09-27T14:28:39.177Z,2268
2017-09-27T14:29:48.929Z,2288
2017-09-27T14:30:59.280Z,2308
2017-09-27T14:32:09.647Z,2328
2017-09-27T14:33:19.700Z,2344
2017-09-27T14:34:30.050Z,2360
2017-09-27T14:35:40.408Z,2368
2017-09-27T14:36:50.430Z,2372
2017-09-27T14:38:00.794Z,2372
2017-09-27T14:39:11.159Z,2368
2017-09-27T14:40:21.246Z,2360
2017-09-27T14:41:30.955Z,2352
2017-09-27T14:42:40.998Z,2344
2017-09-27T14:43:51.344Z,2328
2017-09-27T14:45:01.073Z,2320
2017-09-27T14:46:11.423Z,2304
2017-09-27T14:47:21.761Z,2284
2017-09-27T14:48:31.803Z,2268
2017-09-27T14:49:41.195Z,2244
2017-09-27T14:50:52.198Z,2216
2017-09-27T14:52:02.564Z,2192
2017-09-27T14:53:12.913Z,2168
2017-09-27T14:54:22.980Z,2144
2017-09-27T14:55:33.368Z,2128
2017-09-27T14:56:43.719Z,2112
2017-09-27T14:57:54.112Z,2084
2017-09-27T14:59:04.461Z,2056
2017-09-27T15:00:14.826Z,2020
2017-09-27T15:01:25.198Z,1972
2017-09-27T15:02:35.548Z,1908
2017-09-27T15:03:45.946Z,1828
2017-09-27T15:04:55.991Z,1740
2017-09-27T15:06:06.068Z,1648
2017-09-27T15:07:16.097Z,1548
2017-09-27T15:08:26.144Z,1460
2017-09-27T15:09:36.543Z,1384
2017-09-27T15:10:46.910Z,1320
2017-09-27T15:11:57.271Z,1272
2017-09-27T15:13:07.305Z,1244
2017-09-27T15:14:17.682Z,1220
2017-09-27T15:15:27.784Z,1208
2017-09-27T15:16:37.833Z,1204
2017-09-27T15:17:48.193Z,1204
2017-09-27T15:18:58.562Z,1212
2017-09-27T15:20:08.615Z,1220
2017-09-27T15:21:18.793Z,1224
2017-09-27T15:22:29.166Z,1232
2017-09-27T15:23:39.219Z,1236
2017-09-27T15:24:49.636Z,1240
2017-09-27T15:25:59.684Z,1236
2017-09-27T15:27:10.108Z,1232
2017-09-27T15:28:20.453Z,1224
2017-09-27T15:29:30.834Z,1212
2017-09-27T15:30:41.441Z,1200
2017-09-27T15:31:51.822Z,1188
2017-09-27T15:33:02.224Z,1164
2017-09-27T15:34:12.606Z,1144
2017-09-27T15:35:22.975Z,1120
2017-09-27T15:36:33.321Z,1092
2017-09-27T15:37:43.685Z,1064
2017-09-27T15:38:53.773Z,1036
2017-09-27T15:40:04.149Z,1004
2017-09-27T15:41:14.539Z,972
2017-09-27T15:42:24.934Z,944
2017-09-27T15:43:35.291Z,916
2017-09-27T15:44:45.729Z,896
2017-09-27T15:45:56.095Z,880
2017-09-27T15:47:06.486Z,868
2017-09-27T15:48:16.903Z,856
2017-09-27T15:49:27.270Z,852
2017-09-27T15:50:37.655Z,840
2017-09-27T15:51:48.016Z,836
2017-09-27T15:52:58.054Z,824
2017-09-27T15:54:08.116Z,812
2017-09-27T15:55:18.478Z,796
2017-09-27T15:56:28.586Z,776
2017-09-27T15:57:38.931Z,756
2017-09-27T15:58:49.288Z,736
2017-09-27T15:59:59.316Z,712
2017-09-27T16:01:09.341Z,688
2017-09-27T16:02:19.709Z,660
2017-09-27T16:03:30.082Z,632
2017-09-27T16:04:40.461Z,608
2017-09-27T16:05:50.877Z,580
2017-09-27T16:07:01.230Z,556
2017-09-27T16:08:11.637Z,532
2017-09-27T16:09:21.345Z,508
2017-09-27T16:10:31.721Z,484
2017-09-27T16:11:41.766Z,460
2017-09-27T16:12:52.154Z,432
2017-09-27T16:14:02.255Z,412
2017-09-27T16:15:12.611Z,388
2017-09-27T16:16:22.969Z,368
2017-09-27T16:17:33.021Z,348
2017-09-27T16:18:43.398Z,324
2017-09-27T16:19:53.768Z,304
2017-09-27T16:21:04.162Z,284
2017-09-27T16:22:14.528Z,264
2017-09-27T16:23:24.589Z,248
2017-09-27T16:24:34.957Z,228
2017-09-27T16:25:45.372Z,212
2017-09-27T16:26:55.419Z,196
2017-09-27T16:28:05.478Z,184
2017-09-27T16:29:15.853Z,168
2017-09-27T16:30:26.200Z,152
2017-09-27T16:31:36.590Z,136
2017-09-27T16:32:46.942Z,124
2017-09-27T16:33:57.309Z,116
2017-09-27T16:35:07.677Z,104